Time;durP1;ratioP1;P1;durP2;ratioP2;P2;SDS_P1;SDS_P2;PMS_P1;PMS_P2;Temp;Humidity;BMP_temperature;BMP_pressure;BME280_temperature;BME280_humidity;BME280_pressure;Samples;Min_cycle;Max_cycle;Signal;HPM_P1;HPM_P2
2023/03/24 00:00:38;;;;;;;63.60;48.80;;;;;;;4.88;100.00;101281.75;5024168;28;20061;-78
2023/03/24 00:03:05;;;;;;;61.53;46.90;;;;;;;4.81;100.00;101285.97;5021533;28;20045;-78
2023/03/24 00:05:40;;;;;;;58.38;46.92;;;;;;;4.94;100.00;101277.66;5029893;28;20054;-78
2023/03/24 00:08:09;;;;;;;61.45;47.13;;;;;;;4.87;100.00;101280.09;5013728;28;20076;-78
2023/03/24 00:10:39;;;;;;;60.80;48.72;;;;;;;4.86;100.00;101283.69;5025928;28;20072;-78
2023/03/24 00:13:09;;;;;;;64.45;53.83;;;;;;;4.86;100.00;101275.78;5024738;28;20089;-78
2023/03/24 00:15:36;;;;;;;60.80;47.47;;;;;;;4.66;100.00;101277.81;5014060;28;20054;-78
2023/03/24 00:18:09;;;;;;;61.28;48.20;;;;;;;4.79;100.00;101275.59;5019158;28;20446;-78
2023/03/24 00:20:41;;;;;;;63.35;49.67;;;;;;;4.67;100.00;101266.31;5024069;28;20050;-78
2023/03/24 00:23:08;;;;;;;67.50;51.70;;;;;;;4.76;100.00;101265.38;5028816;28;20049;-78
2023/03/24 00:25:36;;;;;;;67.72;51.35;;;;;;;4.62;100.00;101259.84;5025083;28;20320;-78
2023/03/24 00:28:06;;;;;;;65.00;50.10;;;;;;;4.48;100.00;101251.53;5028826;28;20055;-78
2023/03/24 00:30:38;;;;;;;67.00;49.13;;;;;;;4.66;100.00;101248.03;5037486;28;20045;-78
2023/03/24 00:33:08;;;;;;;62.80;48.95;;;;;;;4.50;100.00;101251.38;5028401;28;20055;-78
2023/03/24 00:35:49;;;;;;;65.78;50.50;;;;;;;4.45;100.00;101251.00;4996228;28;20560;-78
2023/03/24 00:38:16;;;;;;;63.97;52.03;;;;;;;4.34;100.00;101244.19;5035726;28;20045;-78
2023/03/24 00:40:47;;;;;;;64.25;48.67;;;;;;;4.10;100.00;101250.88;5043461;28;20041;-78
2023/03/24 00:43:18;;;;;;;65.73;49.67;;;;;;;4.25;100.00;101240.66;5048373;28;20095;-78
2023/03/24 00:45:45;;;;;;;70.72;54.58;;;;;;;4.45;100.00;101237.84;5048473;28;20141;-78
2023/03/24 00:48:14;;;;;;;76.38;53.22;;;;;;;4.55;100.00;101243.84;5046205;28;20040;-78
2023/03/24 00:50:50;;;;;;;65.40;50.13;;;;;;;4.86;100.00;101236.31;5051233;28;20052;-78
2023/03/24 00:53:28;;;;;;;65.75;50.55;;;;;;;4.47;100.00;101230.63;5045468;28;20061;-78
2023/03/24 00:55:56;;;;;;;63.83;49.60;;;;;;;4.28;100.00;101234.28;5047882;28;20107;-78
2023/03/24 00:58:25;;;;;;;68.82;54.45;;;;;;;4.55;100.00;101231.53;5047818;28;20510;-78
2023/03/24 01:00:58;;;;;;;67.38;52.92;;;;;;;4.50;100.00;101233.78;5046709;28;20071;-78
2023/03/24 01:03:26;;;;;;;;;;;;;;;4.76;100.00;101236.44;5046817;28;20136;-78
2023/03/24 01:06:01;;;;;;;64.65;50.40;;;;;;;4.86;100.00;101236.31;5045298;28;20453;-78
2023/03/24 01:08:28;;;;;;;64.60;49.17;;;;;;;4.92;100.00;101245.41;4996914;28;20057;-78
2023/03/24 01:10:59;;;;;;;64.57;49.92;;;;;;;4.91;100.00;101238.50;5018709;28;20049;-78
2023/03/24 01:13:29;;;;;;;63.28;51.50;;;;;;;4.76;100.00;101246.13;5020745;28;20049;-78
2023/03/24 01:16:00;;;;;;;68.55;53.40;;;;;;;4.75;100.00;101245.31;5017634;28;20081;-78
2023/03/24 01:21:12;;;;;;;75.40;59.80;;;;;;;4.40;100.00;101251.47;5020872;28;20049;-78
2023/03/24 01:23:43;;;;;;;62.17;50.17;;;;;;;4.28;100.00;101256.13;5019227;28;20054;-78
2023/03/24 01:26:11;;;;;;;69.40;53.50;;;;;;;4.06;100.00;101252.16;5020608;28;20087;-78
2023/03/24 01:28:42;;;;;;;65.88;51.45;;;;;;;4.23;100.00;101245.22;5032931;28;20442;-78
2023/03/24 01:31:12;;;;;;;70.22;58.60;;;;;;;4.25;100.00;101247.72;5030772;28;20052;-78
2023/03/24 01:33:43;;;;;;;72.88;62.50;;;;;;;3.95;100.00;101239.25;5031739;28;20046;-78
2023/03/24 01:36:14;;;;;;;69.05;57.17;;;;;;;3.76;100.00;101234.94;5027947;28;20050;-78
2023/03/24 01:38:44;;;;;;;68.80;52.60;;;;;;;3.87;100.00;101240.00;5028874;28;20052;-78
2023/03/24 01:41:12;;;;;;;73.80;55.45;;;;;;;3.89;100.00;101242.47;5027251;28;20397;-78
2023/03/24 01:43:39;;;;;;;76.35;59.88;;;;;;;3.87;100.00;101247.88;5023223;28;20050;-78
2023/03/24 01:46:18;;;;;;;70.50;56.10;;;;;;;4.04;100.00;101250.66;5028285;28;20049;-78
2023/03/24 01:48:57;;;;;;;64.90;51.30;;;;;;;3.91;100.00;101251.03;5029304;28;20679;-78
2023/03/24 01:51:42;;;;;;;65.25;50.00;;;;;;;4.18;100.00;101249.31;4998376;28;20038;-78
2023/03/24 01:54:26;;;;;;;72.43;54.38;;;;;;;4.25;100.00;101261.69;5030326;28;20064;-78
2023/03/24 01:57:06;;;;;;;66.07;52.75;;;;;;;4.11;100.00;101275.38;5028097;28;20056;-78
2023/03/24 01:59:38;;;;;;;66.78;57.45;;;;;;;3.87;100.00;101278.56;5024932;28;20057;-78
2023/03/24 02:02:06;;;;;;;66.00;53.85;;;;;;;3.65;100.00;101277.19;5027833;28;20046;-78
2023/03/24 02:04:38;;;;;;;68.03;51.65;;;;;;;3.86;100.00;101284.81;5025282;28;20046;-78
2023/03/24 02:09:59;;;;;;;68.55;54.42;;;;;;;3.46;100.00;101243.16;5027540;28;20052;-78
2023/03/24 02:12:27;;;;;;;90.25;67.57;;;;;;;3.26;100.00;101240.63;5026936;28;20046;-78
2023/03/24 02:14:57;;;;;;;82.65;58.53;;;;;;;3.24;100.00;101226.81;5029169;28;20107;-78
2023/03/24 02:17:56;;;;;;;76.72;57.47;;;;;;;3.47;100.00;101223.78;5025478;28;20519;-78
2023/03/24 02:20:56;;;;;;;82.45;62.42;;;;;;;3.65;100.00;101233.34;5023637;28;20084;-78
2023/03/24 02:24:02;;;;;;;81.68;68.90;;;;;;;4.09;100.00;101232.66;5030023;28;20424;-78
2023/03/24 02:27:02;;;;;;;79.15;69.30;;;;;;;4.33;100.00;101227.59;4996671;28;20064;-78
2023/03/24 02:29:59;;;;;;;73.40;60.22;;;;;;;4.09;100.00;101224.75;5015166;28;20045;-78
2023/03/24 02:32:53;;;;;;;69.35;59.58;;;;;;;4.25;100.00;101218.81;5029607;28;20438;-78
2023/03/24 02:36:06;;;;;;;69.53;61.97;;;;;;;4.43;100.00;101219.59;5016266;28;20049;-78
2023/03/24 02:39:21;;;;;;;67.93;60.60;;;;;;;4.50;100.00;101206.66;5033038;28;20049;-78
2023/03/24 02:42:01;;;;;;;61.47;50.03;;;;;;;4.55;100.00;101207.84;5012035;28;20050;-78
2023/03/24 02:44:35;;;;;;;61.17;51.28;;;;;;;4.49;100.00;101208.47;5021151;28;20082;-78
2023/03/24 02:47:13;;;;;;;65.65;57.63;;;;;;;4.51;100.00;101208.31;5022061;28;20496;-78
2023/03/24 02:49:47;;;;;;;61.78;51.35;;;;;;;4.43;100.00;101213.50;5019018;28;20054;-78
2023/03/24 02:52:18;;;;;;;61.10;49.42;;;;;;;4.43;100.00;101210.88;5026026;28;20069;-78
2023/03/24 02:54:57;;;;;;;65.45;50.55;;;;;;;4.57;100.00;101205.06;5019691;28;20057;-78
2023/03/24 02:57:35;;;;;;;62.53;51.35;;;;;;;4.48;100.00;101192.81;5019977;28;20052;-78
2023/03/24 03:00:15;;;;;;;63.42;51.22;;;;;;;4.52;100.00;101200.25;5017655;28;20057;-78
2023/03/24 03:02:47;;;;;;;58.28;49.47;;;;;;;4.67;100.00;101203.16;5027055;28;20050;-78
2023/03/24 03:05:33;;;;;;;56.63;50.42;;;;;;;4.58;100.00;101212.78;5027851;28;20053;-78
2023/03/24 03:08:13;;;;;;;57.90;45.72;;;;;;;4.57;100.00;101211.16;5032161;28;20426;-78
2023/03/24 03:10:44;;;;;;;57.80;47.15;;;;;;;4.58;100.00;101206.72;5019844;28;20057;-78
2023/03/24 03:13:31;;;;;;;60.88;48.42;;;;;;;4.63;100.00;101211.50;5027952;28;20049;-78
2023/03/24 03:16:04;;;;;;;61.13;51.55;;;;;;;4.61;100.00;101211.66;5031469;28;20045;-78
2023/03/24 03:18:39;;;;;;;61.13;54.15;;;;;;;4.62;100.00;101213.31;5027500;28;20452;-78
2023/03/24 03:21:19;;;;;;;64.05;55.05;;;;;;;4.54;100.00;101208.84;5014311;28;20053;-78
2023/03/24 03:23:52;;;;;;;58.67;49.90;;;;;;;4.45;100.00;101222.06;5034295;28;20049;-78
2023/03/24 03:26:27;;;;;;;61.47;52.78;;;;;;;4.45;100.00;101217.66;5017512;28;20065;-78
2023/03/24 03:29:04;;;;;;;61.35;51.58;;;;;;;4.58;100.00;101211.97;5029485;28;20046;-78
2023/03/24 03:31:35;;;;;;;58.45;46.25;;;;;;;4.29;100.00;101215.69;5014966;28;20049;-78
2023/03/24 03:34:12;;;;;;;54.72;44.72;;;;;;;4.19;100.00;101219.41;5026344;28;20058;-78
2023/03/24 03:36:48;;;;;;;64.78;49.85;;;;;;;4.26;100.00;101223.06;5021182;28;20049;-78
2023/03/24 03:39:28;;;;;;;59.40;48.33;;;;;;;4.12;100.00;101227.09;5025405;28;20056;-78
2023/03/24 03:41:56;;;;;;;67.13;51.63;;;;;;;3.94;100.00;101227.09;5023001;28;20053;-78
2023/03/24 03:44:25;;;;;;;64.18;52.45;;;;;;;3.88;100.00;101225.88;5025141;28;20045;-78
2023/03/24 03:46:54;;;;;;;65.30;54.05;;;;;;;3.78;100.00;101229.53;5032125;28;20518;-78
2023/03/24 03:49:24;;;;;;;62.85;50.97;;;;;;;4.08;100.00;101233.59;5014115;28;20056;-78
2023/03/24 03:51:53;;;;;;;58.58;47.78;;;;;;;3.96;100.00;101234.81;5016905;28;20061;-78
2023/03/24 03:54:23;;;;;;;57.47;44.08;;;;;;;3.57;100.00;101228.03;5019311;28;20062;-78
2023/03/24 03:56:52;;;;;;;53.55;42.70;;;;;;;3.67;100.00;101236.66;5023183;28;20068;-78
2023/03/24 03:59:32;;;;;;;66.32;51.75;;;;;;;3.70;100.00;101230.28;5018473;28;20053;-78
2023/03/24 04:02:05;;;;;;;62.45;51.33;;;;;;;3.36;100.00;101230.91;5021977;28;20064;-78
2023/03/24 04:05:04;;;;;;;58.63;46.90;;;;;;;3.16;100.00;101229.34;5030733;28;20060;-78
2023/03/24 04:07:43;;;;;;;57.92;46.67;;;;;;;3.13;100.00;101238.31;5025718;28;20072;-78
2023/03/24 04:10:18;;;;;;;54.40;45.55;;;;;;;3.14;100.00;101247.03;5024667;28;20053;-78
2023/03/24 04:13:10;;;;;;;54.50;45.33;;;;;;;3.18;100.00;101246.59;5028530;28;20038;-78
2023/03/24 04:15:46;;;;;;;54.97;45.80;;;;;;;3.12;100.00;101249.81;5025719;28;20430;-78
2023/03/24 04:18:41;;;;;;;60.13;45.58;;;;;;;3.00;100.00;101250.13;5024946;28;20045;-78
2023/03/24 04:21:27;;;;;;;64.53;49.08;;;;;;;2.65;100.00;101272.56;5025916;28;20052;-78
2023/03/24 04:24:04;;;;;;;62.88;49.05;;;;;;;2.75;100.00;101261.13;5033594;28;20076;-78
2023/03/24 04:26:40;;;;;;;56.78;45.10;;;;;;;2.69;100.00;101268.69;5025750;28;20046;-78
2023/03/24 04:29:17;;;;;;;59.42;46.72;;;;;;;2.62;100.00;101268.44;5026961;28;20046;-78
2023/03/24 04:31:52;;;;;;;63.40;49.85;;;;;;;2.67;100.00;101266.22;5030575;28;20574;-78
2023/03/24 04:34:24;;;;;;;70.90;49.45;;;;;;;2.80;100.00;101270.34;5031203;28;20081;-78
2023/03/24 04:36:56;;;;;;;66.15;49.60;;;;;;;2.36;100.00;101280.47;5030463;28;20042;-78
2023/03/24 04:39:27;;;;;;;68.53;51.27;;;;;;;2.59;100.00;101283.63;5028453;28;20041;-78
2023/03/24 04:41:56;;;;;;;69.00;52.65;;;;;;;2.65;100.00;101275.19;5024343;28;20307;-78
2023/03/24 04:44:24;;;;;;;78.00;53.53;;;;;;;2.58;100.00;101274.13;5024924;28;20046;-78
2023/03/24 04:46:56;;;;;;;69.18;56.47;;;;;;;2.61;100.00;101261.53;5024461;28;20127;-78
2023/03/24 04:49:24;;;;;;;64.60;53.80;;;;;;;2.50;100.00;101270.38;5025025;28;20099;-78
2023/03/24 04:51:51;;;;;;;66.28;51.00;;;;;;;2.73;100.00;101275.34;5016558;28;20127;-78
2023/03/24 04:54:18;;;;;;;66.78;50.47;;;;;;;2.76;100.00;101275.06;5023457;28;20054;-78
2023/03/24 04:56:48;;;;;;;62.17;51.10;;;;;;;2.88;100.00;101265.22;5029053;28;20053;-78
2023/03/24 04:59:16;;;;;;;73.95;58.05;;;;;;;2.95;100.00;101280.25;5021445;28;20503;-78
2023/03/24 05:01:48;;;;;;;63.10;53.80;;;;;;;3.24;100.00;101276.72;5030832;28;20046;-78
2023/03/24 05:04:17;;;;;;;62.58;50.20;;;;;;;3.24;100.00;101276.72;5027738;28;20429;-78
2023/03/24 05:06:45;;;;;;;88.88;69.40;;;;;;;3.43;100.00;101275.78;5028799;28;20045;-78
2023/03/24 05:09:13;;;;;;;77.30;59.95;;;;;;;3.81;100.00;101284.41;5031715;28;20144;-78
2023/03/24 05:11:40;;;;;;;75.40;57.92;;;;;;;3.94;100.00;101284.91;5025503;28;20058;-78
2023/03/24 05:14:07;;;;;;;77.60;60.33;;;;;;;4.06;100.00;101291.59;5025187;28;20104;-78
2023/03/24 05:16:34;;;;;;;65.65;52.20;;;;;;;4.25;100.00;101284.53;5028015;28;20046;-78
2023/03/24 05:19:00;;;;;;;65.70;49.70;;;;;;;4.39;100.00;101291.06;5026304;28;20045;-78
2023/03/24 05:21:31;;;;;;;58.33;47.88;;;;;;;4.44;100.00;101281.75;5027219;28;20523;-78
2023/03/24 05:23:58;;;;;;;69.88;53.63;;;;;;;4.64;100.00;101289.47;5025740;28;20129;-78
2023/03/24 05:26:25;;;;;;;66.40;55.80;;;;;;;4.67;100.00;101294.44;5025029;28;20492;-78
2023/03/24 05:28:52;;;;;;;59.38;50.38;;;;;;;4.76;100.00;101299.59;5027500;28;20124;-78
2023/03/24 05:31:19;;;;;;;59.20;48.28;;;;;;;4.87;100.00;101297.69;5031145;28;20045;-78
2023/03/24 05:33:45;;;;;;;55.40;47.40;;;;;;;5.08;100.00;101292.06;5026976;28;20046;-78
2023/03/24 05:36:13;;;;;;;52.90;46.88;;;;;;;5.32;100.00;101283.47;5029489;28;20120;-78
2023/03/24 05:38:41;;;;;;;59.22;52.70;;;;;;;5.50;100.00;101284.19;5030582;28;20042;-78
2023/03/24 05:41:08;;;;;;;52.97;46.83;;;;;;;5.60;100.00;101295.44;5020460;28;20728;-78
2023/03/24 05:43:35;;;;;;;56.50;46.78;;;;;;;5.49;100.00;101286.00;5030130;28;20491;-78
2023/03/24 05:46:01;;;;;;;53.95;45.50;;;;;;;5.56;100.00;101293.28;5030054;28;20057;-78
2023/03/24 05:48:28;;;;;;;54.38;47.42;;;;;;;5.84;100.00;101292.06;5027643;28;20482;-78
2023/03/24 05:50:55;;;;;;;58.30;46.83;;;;;;;6.04;100.00;101286.53;5026159;28;20095;-78
2023/03/24 05:53:21;;;;;;;50.78;45.35;;;;;;;6.06;100.00;101285.38;5025629;28;20107;-78
2023/03/24 05:55:52;;;;;;;52.80;46.97;;;;;;;6.27;100.00;101287.56;5022969;28;20046;-78
2023/03/24 05:58:20;;;;;;;56.28;46.40;;;;;;;6.39;100.00;101288.06;5025600;28;20049;-78
2023/03/24 06:00:47;;;;;;;54.63;48.80;;;;;;;6.76;100.00;101290.19;5024668;28;20056;-78
2023/03/24 06:03:15;;;;;;;60.13;53.60;;;;;;;6.72;100.00;101294.16;5028117;28;20077;-78
2023/03/24 06:05:44;;;;;;;55.40;49.67;;;;;;;6.83;100.00;101291.16;5031831;28;20503;-78
2023/03/24 06:08:11;;;;;;;55.55;49.55;;;;;;;7.06;100.00;101282.53;5026468;28;20490;-78
2023/03/24 06:10:39;;;;;;;56.63;50.03;;;;;;;7.21;100.00;101283.50;5026790;28;20053;-78
2023/03/24 06:13:08;;;;;;;60.70;54.55;;;;;;;7.24;100.00;101279.69;5022447;28;20471;-78
2023/03/24 06:15:35;;;;;;;52.08;46.47;;;;;;;7.58;100.00;101282.03;5022716;28;20045;-78
2023/03/24 06:18:04;;;;;;;52.30;46.72;;;;;;;7.71;100.00;101281.47;5027914;28;20050;-78
2023/03/24 06:20:31;;;;;;;55.50;49.20;;;;;;;7.73;100.00;101275.00;5029351;28;20071;-78
2023/03/24 06:23:02;;;;;;;59.15;52.78;;;;;;;7.99;100.00;101274.72;5021440;28;20530;-78
2023/03/24 06:25:29;;;;;;;59.08;52.85;;;;;;;8.24;100.00;101271.88;5023983;28;20144;-78
2023/03/24 06:27:55;;;;;;;62.90;56.47;;;;;;;8.41;100.00;101277.88;5024106;28;20046;-78
2023/03/24 06:30:23;;;;;;;60.00;53.90;;;;;;;8.63;100.00;101281.53;5020390;28;20042;-78
2023/03/24 06:32:50;;;;;;;59.67;53.35;;;;;;;8.77;100.00;101286.00;5027550;28;20088;-78
2023/03/24 06:35:17;;;;;;;58.58;52.67;;;;;;;9.01;100.00;101284.94;5028199;28;20100;-78
2023/03/24 06:37:44;;;;;;;58.78;52.78;;;;;;;9.18;100.00;101278.47;5025626;28;20050;-78
2023/03/24 06:40:13;;;;;;;54.88;49.17;;;;;;;9.16;100.00;101295.56;5028822;28;20495;-78
2023/03/24 06:42:40;;;;;;;58.92;52.92;;;;;;;9.33;100.00;101290.91;5025465;28;20046;-78
2023/03/24 06:45:08;;;;;;;58.83;52.80;;;;;;;9.82;100.00;101295.59;5031681;28;20045;-78
2023/03/24 06:47:37;;;;;;;63.67;57.33;;;;;;;9.72;100.00;101287.13;5023446;28;20105;-78
2023/03/24 06:50:04;;;;;;;56.30;50.72;;;;;;;9.71;100.00;101290.75;5029399;28;20073;-78
2023/03/24 06:52:31;;;;;;;64.25;57.92;;;;;;;9.96;100.00;101288.63;5028332;28;20049;-78
2023/03/24 06:54:58;;;;;;;67.30;61.13;;;;;;;10.23;100.00;101290.53;5030251;28;20045;-78
2023/03/24 06:57:26;;;;;;;66.80;60.70;;;;;;;10.39;100.00;101291.31;5028580;28;20049;-78
2023/03/24 06:59:53;;;;;;;67.47;61.42;;;;;;;10.55;100.00;101283.88;5028442;28;20129;-78
2023/03/24 07:02:20;;;;;;;59.88;54.13;;;;;;;10.65;100.00;101285.38;5017220;28;20041;-78
2023/03/24 07:04:49;;;;;;;59.50;53.70;;;;;;;10.83;100.00;101271.63;5024906;28;20052;-78
2023/03/24 07:07:16;;;;;;;56.65;51.03;;;;;;;11.02;100.00;101283.44;5014924;28;20049;-78
2023/03/24 07:09:43;;;;;;;56.40;51.05;;;;;;;11.27;100.00;101275.78;5021290;28;20092;-78
2023/03/24 07:12:10;;;;;;;59.75;53.85;;;;;;;11.71;100.00;101291.34;5021259;28;20482;-78
2023/03/24 07:14:37;;;;;;;70.82;64.18;;;;;;;11.51;100.00;101274.47;5023716;28;20045;-78
2023/03/24 07:17:04;;;;;;;71.13;64.78;;;;;;;11.93;100.00;101277.94;5019216;28;20045;-78
2023/03/24 07:19:31;;;;;;;66.38;60.38;;;;;;;12.02;100.00;101279.38;5016885;28;20052;-78
2023/03/24 07:21:59;;;;;;;68.75;62.65;;;;;;;12.20;100.00;101274.28;5020892;28;20141;-78
2023/03/24 07:24:26;;;;;;;64.35;58.60;;;;;;;11.99;100.00;101283.25;5018430;28;20126;-78
2023/03/24 07:26:53;;;;;;;58.75;53.30;;;;;;;12.55;100.00;101282.09;5016898;28;20053;-78
2023/03/24 07:29:20;;;;;;;57.65;52.60;;;;;;;12.44;100.00;101280.88;5016972;28;20050;-78
2023/03/24 07:31:47;;;;;;;62.65;57.28;;;;;;;12.93;100.00;101278.78;5019084;28;20042;-78
2023/03/24 07:34:14;;;;;;;58.65;53.30;;;;;;;13.34;100.00;101269.69;5019730;28;20049;-78
2023/03/24 07:36:41;;;;;;;53.28;48.35;;;;;;;13.31;100.00;101265.56;5024487;28;20670;-78
2023/03/24 07:39:10;;;;;;;57.03;51.65;;;;;;;13.82;100.00;101264.75;5019891;28;20050;-78
2023/03/24 07:41:36;;;;;;;53.80;49.08;;;;;;;13.87;100.00;101272.13;5024979;28;20046;-78
2023/03/24 07:44:03;;;;;;;62.40;57.00;;;;;;;13.97;100.00;101269.78;5027224;28;20053;-78
2023/03/24 07:46:30;;;;;;;52.90;48.75;;;;;;;13.98;100.00;101258.09;5025804;28;20066;-78
2023/03/24 07:48:57;;;;;;;57.05;52.55;;;;;;;14.39;100.00;101262.91;5027395;28;20515;-78
2023/03/24 07:51:24;;;;;;;54.78;50.00;;;;;;;14.65;100.00;101271.81;5025570;28;20041;-78
2023/03/24 07:53:51;;;;;;;54.65;49.65;;;;;;;14.83;100.00;101265.69;5024720;28;20491;-78
2023/03/24 07:56:19;;;;;;;62.17;56.53;;;;;;;15.00;100.00;101268.56;5022815;28;20050;-78
2023/03/24 07:58:46;;;;;;;54.42;49.40;;;;;;;15.35;100.00;101256.25;5024666;28;20568;-78
2023/03/24 08:01:13;;;;;;;58.53;53.22;;;;;;;15.69;100.00;101274.59;5023283;28;20111;-78
2023/03/24 08:03:40;;;;;;;44.25;40.75;;;;;;;14.83;100.00;101258.47;5025320;28;20573;-78
2023/03/24 08:06:08;;;;;;;44.22;40.95;;;;;;;15.48;100.00;101252.59;5030841;28;20084;-79
2023/03/24 08:08:35;;;;;;;40.80;37.22;;;;;;;15.85;100.00;101259.75;5022069;28;20050;-78
2023/03/24 08:11:02;;;;;;;40.65;36.85;;;;;;;15.99;100.00;101250.50;5024062;28;20589;-78
2023/03/24 08:13:30;;;;;;;39.92;36.22;;;;;;;16.01;100.00;101248.41;5024971;28;20078;-78
2023/03/24 08:15:57;;;;;;;39.10;35.45;;;;;;;16.23;100.00;101246.81;5025372;28;20530;-78
2023/03/24 08:18:25;;;;;;;32.40;29.60;;;;;;;16.28;100.00;101246.13;5025563;28;20046;-79
2023/03/24 08:20:56;;;;;;;32.22;29.40;;;;;;;17.02;100.00;101246.50;5021717;28;20049;-79
2023/03/24 08:23:23;;;;;;;33.97;31.08;;;;;;;16.75;100.00;101231.94;5027689;28;20469;-78
2023/03/24 08:25:51;;;;;;;34.20;31.30;;;;;;;17.35;100.00;101239.66;5024562;28;20084;-78
2023/03/24 08:28:17;;;;;;;31.98;29.23;;;;;;;16.80;100.00;101232.88;5023967;28;20053;-78
2023/03/24 08:30:46;;;;;;;34.97;31.63;;;;;;;15.45;100.00;101236.97;5023627;28;20053;-78
2023/03/24 08:33:15;;;;;;;32.15;29.35;;;;;;;14.72;100.00;101236.97;5021039;28;20050;-79
2023/03/24 08:35:44;;;;;;;30.05;27.50;;;;;;;16.91;100.00;101231.22;5026349;28;20498;-79
2023/03/24 08:38:13;;;;;;;29.63;27.00;;;;;;;17.79;100.00;101222.03;5024159;28;20056;-78
2023/03/24 08:40:41;;;;;;;27.85;25.45;;;;;;;17.82;100.00;101221.53;5014474;28;20069;-78
2023/03/24 08:43:12;;;;;;;29.63;26.92;;;;;;;17.06;100.00;101228.06;5023345;28;20049;-78
2023/03/24 08:45:39;;;;;;;29.88;27.33;;;;;;;16.88;100.00;101223.66;5026626;28;20057;-79
2023/03/24 08:48:08;;;;;;;31.13;28.30;;;;;;;17.92;100.00;101220.88;5016841;28;20467;-78
2023/03/24 08:50:37;;;;;;;30.25;27.52;;;;;;;18.60;100.00;101229.75;5018971;28;20046;-79
2023/03/24 08:53:04;;;;;;;32.60;30.00;;;;;;;18.39;94.61;101225.94;5026050;28;20111;-78
2023/03/24 08:55:31;;;;;;;31.38;28.63;;;;;;;18.62;94.00;101226.84;5017830;28;20116;-78
2023/03/24 08:57:57;;;;;;;30.58;27.77;;;;;;;18.30;100.00;101230.09;5025105;28;20050;-78
2023/03/24 09:00:24;;;;;;;28.77;26.27;;;;;;;18.06;100.00;101221.38;5025676;28;20570;-78
2023/03/24 09:02:53;;;;;;;29.73;26.80;;;;;;;18.58;100.00;101228.38;5026455;28;20104;-78
2023/03/24 09:05:22;;;;;;;30.83;28.02;;;;;;;18.98;94.57;101228.97;5033017;28;20211;-78
2023/03/24 09:07:51;;;;;;;29.50;26.80;;;;;;;19.86;99.23;101223.50;5028392;28;20424;-78
2023/03/24 09:10:18;;;;;;;27.25;25.02;;;;;;;19.54;85.02;101220.72;5028909;28;20125;-79
2023/03/24 09:12:46;;;;;;;30.25;27.73;;;;;;;17.74;100.00;101218.38;5023647;28;20061;-78
2023/03/24 09:15:13;;;;;;;27.30;24.90;;;;;;;18.50;98.85;101213.47;5026033;28;20045;-78
2023/03/24 09:17:41;;;;;;;28.05;25.65;;;;;;;18.38;100.00;101210.88;5030482;28;20465;-78
2023/03/24 09:20:11;;;;;;;28.13;25.83;;;;;;;17.10;100.00;101211.25;5024413;28;20137;-78
2023/03/24 09:22:40;;;;;;;34.08;31.35;;;;;;;19.08;100.00;101204.06;5027415;28;20069;-78
2023/03/24 09:25:08;;;;;;;28.88;26.52;;;;;;;19.13;100.00;101206.00;5026168;28;20116;-78
2023/03/24 09:27:35;;;;;;;29.73;27.08;;;;;;;19.03;100.00;101205.88;5026520;28;20050;-78
2023/03/24 09:30:02;;;;;;;28.75;26.55;;;;;;;20.41;89.52;101207.22;5025875;28;20057;-79
2023/03/24 09:32:29;;;;;;;29.02;26.80;;;;;;;18.98;95.79;101214.72;5026883;28;20395;-78
2023/03/24 09:34:56;;;;;;;31.55;28.83;;;;;;;15.46;100.00;101200.31;5030094;28;20057;-78
2023/03/24 09:37:23;;;;;;;31.65;29.02;;;;;;;18.99;100.00;101208.25;5029315;28;20057;-78
2023/03/24 09:39:53;;;;;;;31.27;28.75;;;;;;;20.09;100.00;101198.13;5027112;28;20053;-78
2023/03/24 09:42:23;;;;;;;32.53;29.90;;;;;;;19.50;98.37;101203.47;5026285;28;20058;-78
2023/03/24 09:44:54;;;;;;;32.03;29.42;;;;;;;20.51;100.00;101191.91;5026287;28;20049;-78
2023/03/24 09:47:30;;;;;;;30.08;27.33;;;;;;;20.80;83.27;101189.69;5020026;28;20049;-79
2023/03/24 09:50:01;;;;;;;30.52;27.92;;;;;;;20.93;93.70;101190.28;5028202;28;20054;-78
2023/03/24 09:52:33;;;;;;;29.10;26.85;;;;;;;18.10;100.00;101187.59;5027968;28;20072;-78
2023/03/24 09:55:02;;;;;;;26.15;23.85;;;;;;;17.01;100.00;101188.53;5026973;28;20049;-78
2023/03/24 09:57:36;;;;;;;29.15;26.75;;;;;;;18.30;100.00;101181.69;5021857;28;20050;-78
2023/03/24 10:00:15;;;;;;;27.45;25.15;;;;;;;17.68;100.00;101173.69;5025937;28;20053;-78
2023/03/24 10:02:42;;;;;;;28.48;26.08;;;;;;;21.13;87.20;101179.56;5026050;28;20056;-78
2023/03/24 10:05:13;;;;;;;30.42;27.83;;;;;;;20.93;74.31;101174.88;5033219;28;20049;-78
2023/03/24 10:07:47;;;;;;;31.20;28.67;;;;;;;20.95;82.36;101177.34;5027388;28;20097;-78
2023/03/24 10:10:24;;;;;;;30.17;27.58;;;;;;;19.76;79.98;101174.91;5027577;28;20584;-78
2023/03/24 10:12:51;;;;;;;27.92;25.33;;;;;;;17.46;100.00;101171.69;5017573;28;20053;-79
2023/03/24 10:15:25;;;;;;;28.48;25.73;;;;;;;18.08;98.21;101169.00;5026345;28;20081;-78
2023/03/24 10:17:57;;;;;;;28.45;25.95;;;;;;;18.05;100.00;101166.00;5024838;28;20049;-79
2023/03/24 10:20:37;;;;;;;31.63;29.02;;;;;;;18.80;97.04;101162.00;5027222;28;20571;-78
2023/03/24 10:23:20;;;;;;;31.58;28.98;;;;;;;21.39;87.84;101155.31;5026932;28;20542;-78
2023/03/24 10:25:54;;;;;;;30.55;28.15;;;;;;;20.46;84.48;101148.72;5026804;28;20050;-78
2023/03/24 10:28:24;;;;;;;27.27;24.98;;;;;;;18.62;93.97;101159.56;5016429;28;20109;-78
2023/03/24 10:30:55;;;;;;;28.95;26.42;;;;;;;21.28;86.56;101151.78;5027483;28;20053;-78
2023/03/24 10:33:22;;;;;;;25.52;23.42;;;;;;;17.65;91.15;101158.88;5026937;28;20103;-78
2023/03/24 10:35:57;;;;;;;25.58;23.38;;;;;;;20.01;96.92;101152.75;5033178;28;20045;-78
2023/03/24 10:38:24;;;;;;;26.23;24.02;;;;;;;20.34;76.32;101142.72;5017413;28;20083;-78
2023/03/24 10:40:54;;;;;;;27.33;24.92;;;;;;;22.48;76.39;101138.81;5025443;28;20046;-78
2023/03/24 10:43:22;;;;;;;28.17;25.67;;;;;;;18.72;88.34;101148.94;5024724;28;20041;-78
2023/03/24 10:45:51;;;;;;;25.58;23.27;;;;;;;17.60;97.04;101143.47;5024289;28;20057;-78
2023/03/24 10:48:34;;;;;;;26.58;24.48;;;;;;;19.16;100.00;101122.84;5032632;28;20054;-78
2023/03/24 10:51:01;;;;;;;;;;;;;;;18.10;94.20;101130.34;5026902;28;20045;-78
2023/03/24 10:53:28;;;;;;;26.42;24.42;;;;;;;20.85;100.00;101128.69;5026536;28;19928;-78
2023/03/24 10:55:56;;;;;;;28.73;26.60;;;;;;;20.59;100.00;101118.59;5024748;28;20049;-78
2023/03/24 10:58:30;;;;;;;26.88;24.67;;;;;;;21.15;96.82;101114.47;5025806;28;20046;-78
2023/03/24 11:00:59;;;;;;;27.98;25.85;;;;;;;20.81;92.46;101115.72;5026304;28;20107;-78
2023/03/24 11:03:30;;;;;;;25.92;23.65;;;;;;;18.11;100.00;101115.84;5026803;28;20145;-78
2023/03/24 11:06:01;;;;;;;25.48;23.48;;;;;;;20.97;91.38;101096.88;5018402;28;20045;-78
2023/03/24 11:08:33;;;;;;;26.15;24.05;;;;;;;22.61;78.84;101103.03;5026683;28;20045;-79
2023/03/24 11:11:06;;;;;;;24.58;22.40;;;;;;;20.84;83.80;101113.56;5023933;28;20104;-79
2023/03/24 11:13:34;;;;;;;25.08;23.10;;;;;;;18.88;79.19;101104.22;5025427;28;20045;-78
2023/03/24 11:16:10;;;;;;;28.55;26.35;;;;;;;18.83;84.84;101102.28;5026422;28;20057;-78
2023/03/24 11:18:38;;;;;;;28.50;26.10;;;;;;;20.22;95.83;101088.19;5015088;28;20052;-78
2023/03/24 11:21:07;;;;;;;28.17;26.08;;;;;;;22.18;82.75;101083.72;5026633;28;20113;-78
2023/03/24 11:23:38;;;;;;;26.60;24.30;;;;;;;23.52;60.54;101079.22;5020822;28;20050;-79
2023/03/24 11:26:14;;;;;;;26.52;24.23;;;;;;;20.38;75.17;101075.56;5028339;28;20111;-78
2023/03/24 11:28:45;;;;;;;27.05;24.88;;;;;;;23.17;69.41;101064.03;5025113;28;20502;-78
2023/03/24 11:31:23;;;;;;;26.75;24.67;;;;;;;20.09;67.10;101068.69;5018133;28;20510;-78